Time;durP1;ratioP1;P1;durP2;ratioP2;P2;SDS_P1;SDS_P2;PMS_P1;PMS_P2;Temp;Humidity;BMP_temperature;BMP_pressure;BME280_temperature;BME280_humidity;BME280_pressure;Samples;Min_cycle;Max_cycle;Signal;HPM_P1;HPM_P2
2021/06/22 00:00:36;;;;;;;4.10;3.70;;;;;;;;;;5095671;28;20024;-57
2021/06/22 00:03:02;;;;;;;5.18;4.32;;;;;;;;;;5095684;28;20031;-57
2021/06/22 00:05:28;;;;;;;4.90;3.65;;;;;;;;;;5095768;28;20358;-57
2021/06/22 00:07:55;;;;;;;4.50;4.03;;;;;;;;;;5095163;28;20024;-57
2021/06/22 00:10:25;;;;;;;4.18;3.65;;;;;;;;;;5094707;28;20131;-57
2021/06/22 00:12:52;;;;;;;4.47;3.95;;;;;;;;;;5095829;28;20089;-57
2021/06/22 00:15:19;;;;;;;4.72;4.03;;;;;;;;;;5095105;28;20047;-57
2021/06/22 00:17:45;;;;;;;5.88;4.10;;;;;;;;;;5095007;28;20027;-57
2021/06/22 00:20:12;;;;;;;4.22;3.70;;;;;;;;;;5094287;28;20418;-57
2021/06/22 00:22:42;;;;;;;9.80;4.57;;;;;;;;;;5094949;28;20108;-57
2021/06/22 00:25:09;;;;;;;4.88;3.80;;;;;;;;;;5094775;28;20028;-57
2021/06/22 00:27:35;;;;;;;6.75;4.40;;;;;;;;;;5094812;28;20028;-57
2021/06/22 00:30:01;;;;;;;4.32;3.55;;;;;;;;;;5094687;28;20028;-57
2021/06/22 00:32:27;;;;;;;3.85;3.45;;;;;;;;;;5095328;28;20020;-57
2021/06/22 00:34:53;;;;;;;4.55;4.00;;;;;;;;;;5094691;28;20420;-57
2021/06/22 00:37:19;;;;;;;4.93;3.88;;;;;;;;;;5094944;28;20016;-57
2021/06/22 00:39:46;;;;;;;7.50;3.83;;;;;;;;;;5094833;28;20024;-57
2021/06/22 00:42:13;;;;;;;4.00;3.60;;;;;;;;;;5093347;28;20031;-57
2021/06/22 00:44:49;;;;;;;4.32;3.65;;;;;;;;;;5094472;28;20028;-57
2021/06/22 00:47:17;;;;;;;4.95;4.13;;;;;;;;;;5095018;28;20023;-57
2021/06/22 00:49:44;;;;;;;4.03;3.38;;;;;;;;;;5094435;28;20020;-57
2021/06/22 00:52:13;;;;;;;3.47;3.17;;;;;;;;;;5093907;28;20462;-57
2021/06/22 00:54:39;;;;;;;5.13;3.38;;;;;;;;;;5094292;28;20027;-57
2021/06/22 00:57:12;;;;;;;4.10;3.28;;;;;;;;;;5094329;28;20031;-57
2021/06/22 00:59:38;;;;;;;5.45;4.25;;;;;;;;;;5094233;28;20369;-57
2021/06/22 01:02:05;;;;;;;7.55;4.05;;;;;;;;;;5093595;28;20028;-57
2021/06/22 01:04:31;;;;;;;6.50;4.78;;;;;;;;;;5094226;28;20107;-57
2021/06/22 01:06:58;;;;;;;6.10;4.97;;;;;;;;;;5094107;28;20410;-57
2021/06/22 01:09:28;;;;;;;4.50;4.10;;;;;;;;;;5093760;28;20051;-57
2021/06/22 01:11:55;;;;;;;5.10;4.60;;;;;;;;;;5094324;28;20024;-57
2021/06/22 01:14:21;;;;;;;8.30;4.82;;;;;;;;;;5093820;28;20104;-57
2021/06/22 01:16:47;;;;;;;8.05;5.68;;;;;;;;;;5094005;28;20099;-57
2021/06/22 01:19:14;;;;;;;5.72;4.88;;;;;;;;;;5094329;28;20024;-57
2021/06/22 01:21:40;;;;;;;5.75;5.25;;;;;;;;;;5093849;28;20035;-57
2021/06/22 01:24:08;;;;;;;7.60;5.38;;;;;;;;;;5093943;28;20028;-57
2021/06/22 01:26:38;;;;;;;6.78;6.15;;;;;;;;;;5093610;28;20055;-57
2021/06/22 01:29:05;;;;;;;7.57;6.78;;;;;;;;;;5093606;28;20465;-57
2021/06/22 01:31:31;;;;;;;6.40;5.80;;;;;;;;;;5094400;28;20374;-57
2021/06/22 01:33:57;;;;;;;7.43;6.63;;;;;;;;;;5092488;28;20025;-57
2021/06/22 01:36:23;;;;;;;7.32;6.65;;;;;;;;;;5093499;28;20025;-57
2021/06/22 01:38:49;;;;;;;10.45;7.45;;;;;;;;;;5094497;28;20060;-57
2021/06/22 01:41:15;;;;;;;8.27;7.40;;;;;;;;;;5093489;28;20488;-57
2021/06/22 01:43:44;;;;;;;7.93;7.13;;;;;;;;;;5094562;28;20396;-57
2021/06/22 01:46:10;;;;;;;9.05;8.25;;;;;;;;;;5093437;28;20024;-57
2021/06/22 01:48:36;;;;;;;9.20;8.20;;;;;;;;;;5092693;28;20116;-57
2021/06/22 01:51:02;;;;;;;8.48;7.68;;;;;;;;;;5092946;28;20032;-57
2021/06/22 01:53:28;;;;;;;9.02;8.23;;;;;;;;;;5093598;28;20027;-57
2021/06/22 01:55:54;;;;;;;12.20;8.18;;;;;;;;;;5093607;28;20028;-57
2021/06/22 01:58:21;;;;;;;10.13;9.10;;;;;;;;;;5093465;28;20032;-57
2021/06/22 02:00:49;;;;;;;9.85;7.95;;;;;;;;;;5094195;28;20024;-57
2021/06/22 02:03:17;;;;;;;7.78;6.93;;;;;;;;;;5093457;28;20054;-57
2021/06/22 02:05:46;;;;;;;6.88;6.25;;;;;;;;;;5094061;28;20019;-57
2021/06/22 02:08:12;;;;;;;7.65;6.95;;;;;;;;;;5092776;28;20020;-57
2021/06/22 02:10:38;;;;;;;8.68;6.32;;;;;;;;;;5093904;28;20040;-57
2021/06/22 02:13:05;;;;;;;6.43;5.93;;;;;;;;;;5093499;28;20023;-57
2021/06/22 02:15:31;;;;;;;6.18;5.57;;;;;;;;;;5093317;28;20123;-57
2021/06/22 02:17:57;;;;;;;6.38;5.65;;;;;;;;;;5092712;28;20029;-57
2021/06/22 02:20:23;;;;;;;6.70;5.70;;;;;;;;;;5092344;28;20012;-57
2021/06/22 02:22:49;;;;;;;5.32;4.82;;;;;;;;;;5093740;28;20085;-57
2021/06/22 02:25:17;;;;;;;6.53;4.80;;;;;;;;;;5093393;28;20120;-57
2021/06/22 02:27:44;;;;;;;5.35;4.85;;;;;;;;;;5092074;28;20107;-57
2021/06/22 02:30:14;;;;;;;5.88;5.28;;;;;;;;;;5093688;28;20088;-57
2021/06/22 02:32:41;;;;;;;5.70;5.18;;;;;;;;;;5093378;28;20048;-57
2021/06/22 02:35:08;;;;;;;5.65;5.15;;;;;;;;;;5092062;28;20497;-57
2021/06/22 02:37:35;;;;;;;6.10;5.50;;;;;;;;;;5093289;28;20412;-57
2021/06/22 02:40:01;;;;;;;5.28;4.70;;;;;;;;;;5093169;28;20058;-57
2021/06/22 02:42:27;;;;;;;6.28;4.50;;;;;;;;;;5093550;28;20089;-56
2021/06/22 02:44:53;;;;;;;6.63;4.88;;;;;;;;;;5093120;28;20477;-57
2021/06/22 02:47:19;;;;;;;6.20;5.63;;;;;;;;;;5093714;28;20054;-57
2021/06/22 02:49:45;;;;;;;5.70;4.90;;;;;;;;;;5094924;28;20433;-57
2021/06/22 02:52:11;;;;;;;6.00;5.40;;;;;;;;;;5096180;28;20068;-57
2021/06/22 02:54:38;;;;;;;5.82;5.22;;;;;;;;;;5096590;28;20122;-57
2021/06/22 02:57:05;;;;;;;6.20;5.60;;;;;;;;;;5097209;28;20354;-57
2021/06/22 02:59:31;;;;;;;7.15;6.45;;;;;;;;;;5096229;28;20537;-57
2021/06/22 03:02:00;;;;;;;6.90;6.20;;;;;;;;;;5096680;28;20063;-57
2021/06/22 03:04:26;;;;;;;6.75;6.15;;;;;;;;;;5096398;28;20189;-57
2021/06/22 03:06:52;;;;;;;6.75;6.10;;;;;;;;;;5096375;28;20343;-57
2021/06/22 03:09:18;;;;;;;9.68;7.68;;;;;;;;;;5094551;28;20055;-57
2021/06/22 03:11:44;;;;;;;7.25;6.13;;;;;;;;;;5096235;28;20378;-57
2021/06/22 03:14:10;;;;;;;9.43;7.57;;;;;;;;;;5096607;28;20055;-57
2021/06/22 03:16:36;;;;;;;8.77;7.00;;;;;;;;;;5096877;28;20032;-57
2021/06/22 03:19:02;;;;;;;7.32;6.63;;;;;;;;;;5096194;28;20369;-57
2021/06/22 03:21:28;;;;;;;10.77;7.55;;;;;;;;;;5096980;28;20356;-57
2021/06/22 03:23:54;;;;;;;8.43;7.05;;;;;;;;;;5095976;28;20099;-57
2021/06/22 03:26:20;;;;;;;7.30;6.57;;;;;;;;;;5096488;28;20030;-57
2021/06/22 03:28:46;;;;;;;7.82;7.07;;;;;;;;;;5096521;28;20081;-57
2021/06/22 03:31:12;;;;;;;9.70;7.07;;;;;;;;;;5095162;28;20485;-57
2021/06/22 03:33:39;;;;;;;7.35;6.65;;;;;;;;;;5096463;28;20024;-57
2021/06/22 03:36:06;;;;;;;10.30;7.10;;;;;;;;;;5094693;28;20016;-57
2021/06/22 03:38:32;;;;;;;7.28;6.57;;;;;;;;;;5095746;28;20028;-57
2021/06/22 03:40:59;;;;;;;7.05;6.35;;;;;;;;;;5095856;28;20035;-57
2021/06/22 03:43:25;;;;;;;9.90;6.45;;;;;;;;;;5096262;28;20042;-58
2021/06/22 03:45:52;;;;;;;6.47;5.88;;;;;;;;;;5094330;28;20016;-58
2021/06/22 03:48:18;;;;;;;5.78;5.28;;;;;;;;;;5095273;28;20039;-58
2021/06/22 03:50:45;;;;;;;6.18;5.57;;;;;;;;;;5094867;28;20028;-58
2021/06/22 03:53:11;;;;;;;6.75;5.95;;;;;;;;;;5095546;28;20412;-58
2021/06/22 03:55:37;;;;;;;7.78;5.70;;;;;;;;;;5094275;28;20024;-58
2021/06/22 03:58:03;;;;;;;5.28;4.47;;;;;;;;;;5095938;28;20024;-58
2021/06/22 04:00:30;;;;;;;5.47;4.88;;;;;;;;;;5094835;28;20028;-58
2021/06/22 04:02:58;;;;;;;6.35;4.75;;;;;;;;;;5096049;28;20462;-58
2021/06/22 04:05:24;;;;;;;6.28;5.50;;;;;;;;;;5095756;28;20359;-58
2021/06/22 04:07:50;;;;;;;7.05;5.07;;;;;;;;;;5095276;28;20138;-58
2021/06/22 04:10:16;;;;;;;7.85;6.30;;;;;;;;;;5093986;28;20052;-58
2021/06/22 04:12:42;;;;;;;8.20;5.72;;;;;;;;;;5094674;28;20036;-58
2021/06/22 04:15:09;;;;;;;6.78;6.18;;;;;;;;;;5093928;28;20020;-58
2021/06/22 04:17:35;;;;;;;6.78;6.07;;;;;;;;;;5095115;28;20365;-58
2021/06/22 04:20:02;;;;;;;7.75;6.95;;;;;;;;;;5095012;28;20103;-58
2021/06/22 04:22:28;;;;;;;8.32;6.65;;;;;;;;;;5093712;28;20077;-58
2021/06/22 04:24:54;;;;;;;8.07;6.82;;;;;;;;;;5094925;28;20016;-58
2021/06/22 04:27:20;;;;;;;9.05;7.30;;;;;;;;;;5095171;28;20024;-58
2021/06/22 04:29:47;;;;;;;8.18;7.10;;;;;;;;;;5094831;28;20398;-58
2021/06/22 04:32:13;;;;;;;9.30;8.40;;;;;;;;;;5093472;28;20111;-58
2021/06/22 04:34:39;;;;;;;9.95;8.98;;;;;;;;;;5094493;28;20111;-58
2021/06/22 04:37:05;;;;;;;14.98;9.30;;;;;;;;;;5095103;28;20074;-58
2021/06/22 04:39:31;;;;;;;12.07;10.07;;;;;;;;;;5094699;28;20020;-59
2021/06/22 04:41:57;;;;;;;10.65;9.30;;;;;;;;;;5095302;28;20048;-59
2021/06/22 04:44:23;;;;;;;10.82;9.25;;;;;;;;;;5092971;28;20035;-59
2021/06/22 04:46:49;;;;;;;11.85;10.63;;;;;;;;;;5094493;28;20065;-59
2021/06/22 04:49:16;;;;;;;10.02;9.07;;;;;;;;;;5094544;28;20020;-59
2021/06/22 04:51:42;;;;;;;10.27;9.38;;;;;;;;;;5094672;28;20028;-59
2021/06/22 04:54:10;;;;;;;12.25;11.15;;;;;;;;;;5094379;28;20028;-59
2021/06/22 04:56:36;;;;;;;10.57;9.65;;;;;;;;;;5094541;28;20032;-59
2021/06/22 04:59:03;;;;;;;16.20;10.80;;;;;;;;;;5094271;28;20020;-59
2021/06/22 05:01:29;;;;;;;12.77;11.50;;;;;;;;;;5092718;28;20125;-59
2021/06/22 05:03:55;;;;;;;11.75;10.65;;;;;;;;;;5094390;28;20473;-59
2021/06/22 05:06:21;;;;;;;13.80;11.13;;;;;;;;;;5094824;28;20031;-59
2021/06/22 05:08:47;;;;;;;12.25;11.07;;;;;;;;;;5093940;28;20051;-59
2021/06/22 05:11:13;;;;;;;12.35;11.10;;;;;;;;;;5093911;28;20028;-59
2021/06/22 05:13:39;;;;;;;11.98;10.88;;;;;;;;;;5094544;28;20346;-59
2021/06/22 05:16:05;;;;;;;12.80;11.60;;;;;;;;;;5093178;28;20054;-59
2021/06/22 05:18:31;;;;;;;12.27;11.10;;;;;;;;;;5094430;28;20028;-59
2021/06/22 05:20:57;;;;;;;12.93;11.63;;;;;;;;;;5093080;28;20046;-59
2021/06/22 05:23:23;;;;;;;13.00;11.63;;;;;;;;;;5093943;28;20030;-59
2021/06/22 05:25:49;;;;;;;12.98;11.15;;;;;;;;;;5094026;28;20016;-59
2021/06/22 05:28:15;;;;;;;12.57;11.43;;;;;;;;;;5093915;28;20031;-59
2021/06/22 05:30:41;;;;;;;12.55;10.52;;;;;;;;;;5093803;28;20020;-59
2021/06/22 05:33:07;;;;;;;9.98;9.18;;;;;;;;;;5093634;28;20161;-59
2021/06/22 05:35:33;;;;;;;10.32;9.43;;;;;;;;;;5093845;28;20027;-59
2021/06/22 05:37:59;;;;;;;12.32;10.88;;;;;;;;;;5092861;28;20024;-59
2021/06/22 05:40:28;;;;;;;12.15;10.10;;;;;;;;;;5093699;28;20020;-59
2021/06/22 05:42:54;;;;;;;12.32;11.05;;;;;;;;;;5094234;28;20020;-59
2021/06/22 05:45:20;;;;;;;13.82;10.98;;;;;;;;;;5092557;28;20138;-59
2021/06/22 05:47:46;;;;;;;11.80;10.65;;;;;;;;;;5093805;28;20040;-59
2021/06/22 05:50:12;;;;;;;10.70;9.63;;;;;;;;;;5093595;28;20030;-59
2021/06/22 05:52:40;;;;;;;11.68;9.27;;;;;;;;;;5094308;28;20032;-59
2021/06/22 05:55:16;;;;;;;9.65;8.68;;;;;;;;;;5093746;28;20024;-59
2021/06/22 05:57:49;;;;;;;9.77;8.95;;;;;;;;;;5094466;28;20031;-59
2021/06/22 06:00:19;;;;;;;10.95;9.85;;;;;;;;;;5093678;28;20469;-59
2021/06/22 06:02:45;;;;;;;10.65;9.55;;;;;;;;;;5094337;28;20051;-59
2021/06/22 06:05:12;;;;;;;10.98;9.98;;;;;;;;;;5092073;28;20028;-59
2021/06/22 06:07:39;;;;;;;9.70;8.82;;;;;;;;;;5094051;28;20032;-59
2021/06/22 06:10:05;;;;;;;11.98;9.13;;;;;;;;;;5093810;28;20059;-59
2021/06/22 06:12:31;;;;;;;11.25;9.23;;;;;;;;;;5093526;28;20024;-59
2021/06/22 06:14:57;;;;;;;10.82;9.82;;;;;;;;;;5093859;28;20108;-59
2021/06/22 06:17:23;;;;;;;10.20;9.20;;;;;;;;;;5092262;28;20111;-59
2021/06/22 06:19:50;;;;;;;10.93;9.90;;;;;;;;;;5092228;28;20024;-59
2021/06/22 06:22:17;;;;;;;11.60;10.00;;;;;;;;;;5092653;28;20020;-59
2021/06/22 06:24:44;;;;;;;13.77;10.52;;;;;;;;;;5096284;28;20027;-59
2021/06/22 06:27:14;;;;;;;10.60;9.60;;;;;;;;;;5097141;28;20016;-59
2021/06/22 06:30:04;;;;;;;10.35;9.32;;;;;;;;;;5096971;28;20544;-59
2021/06/22 06:32:26;;;;;;;10.48;9.48;;;;;;;;;;5097222;28;20108;-59
2021/06/22 06:34:52;;;;;;;9.68;8.73;;;;;;;;;;5095839;28;20055;-59
2021/06/22 06:37:18;;;;;;;8.68;7.88;;;;;;;;;;5095845;28;20028;-59
2021/06/22 06:39:44;;;;;;;9.10;7.95;;;;;;;;;;5097029;28;20030;-59
2021/06/22 06:42:10;;;;;;;9.63;8.75;;;;;;;;;;5096307;28;20115;-59
2021/06/22 06:44:36;;;;;;;10.40;9.40;;;;;;;;;;5096899;28;20024;-59
2021/06/22 06:47:03;;;;;;;9.52;8.52;;;;;;;;;;5097417;28;20028;-59
2021/06/22 06:49:29;;;;;;;10.55;9.45;;;;;;;;;;5096866;28;20372;-59
2021/06/22 06:51:55;;;;;;;8.82;8.02;;;;;;;;;;5097558;28;20432;-59
2021/06/22 06:54:21;;;;;;;9.25;8.13;;;;;;;;;;5096855;28;20033;-59
2021/06/22 06:56:49;;;;;;;8.10;7.30;;;;;;;;;;5096790;28;20419;-59
2021/06/22 06:59:15;;;;;;;9.95;6.85;;;;;;;;;;5096325;28;20085;-59
2021/06/22 07:01:41;;;;;;;8.55;7.43;;;;;;;;;;5096992;28;20035;-59
2021/06/22 07:04:07;;;;;;;6.80;6.20;;;;;;;;;;5096624;28;20016;-59
2021/06/22 07:06:36;;;;;;;7.60;6.18;;;;;;;;;;5096686;28;20369;-59
2021/06/22 07:09:02;;;;;;;7.65;6.90;;;;;;;;;;5096707;28;20173;-59
2021/06/22 07:11:28;;;;;;;7.43;6.40;;;;;;;;;;5096159;28;20024;-59
2021/06/22 07:13:54;;;;;;;9.48;6.55;;;;;;;;;;5096480;28;20031;-59
2021/06/22 07:16:20;;;;;;;9.60;6.25;;;;;;;;;;5096258;28;20073;-59
2021/06/22 07:18:47;;;;;;;7.68;6.82;;;;;;;;;;5096787;28;20031;-59
2021/06/22 07:21:13;;;;;;;7.88;6.95;;;;;;;;;;5096253;28;20028;-59
2021/06/22 07:23:40;;;;;;;8.10;7.40;;;;;;;;;;5096146;28;20070;-59
2021/06/22 07:26:06;;;;;;;8.80;6.93;;;;;;;;;;5094949;28;20036;-57
2021/06/22 07:28:32;;;;;;;8.20;7.03;;;;;;;;;;5095900;28;20024;-58
2021/06/22 07:30:58;;;;;;;7.47;6.55;;;;;;;;;;5096098;28;20024;-58
2021/06/22 07:33:24;;;;;;;8.35;7.07;;;;;;;;;;5096075;28;20051;-58
2021/06/22 07:35:50;;;;;;;8.68;7.78;;;;;;;;;;5093920;28;20458;-58
2021/06/22 07:38:16;;;;;;;8.73;6.40;;;;;;;;;;5095979;28;20020;-58
2021/06/22 07:40:42;;;;;;;7.75;6.95;;;;;;;;;;5095861;28;20028;-58
2021/06/22 07:43:08;;;;;;;9.00;7.38;;;;;;;;;;5095825;28;20016;-58
2021/06/22 07:45:37;;;;;;;5.38;4.90;;;;;;;;;;5096111;28;20513;-58
2021/06/22 07:48:03;;;;;;;5.95;5.38;;;;;;;;;;5095752;28;20020;-58
2021/06/22 07:50:29;;;;;;;6.00;4.78;;;;;;;;;;5094403;28;20023;-58
2021/06/22 07:52:55;;;;;;;6.28;5.00;;;;;;;;;;5096242;28;20567;-58
2021/06/22 07:55:23;;;;;;;8.63;6.07;;;;;;;;;;5095589;28;20453;-58
2021/06/22 07:57:50;;;;;;;6.53;5.55;;;;;;;;;;5094151;28;20558;-58
2021/06/22 08:00:26;;;;;;;6.40;4.82;;;;;;;;;;5095409;28;20073;-58
2021/06/22 08:02:52;;;;;;;4.68;4.15;;;;;;;;;;5095799;28;20022;-58
2021/06/22 08:05:18;;;;;;;7.05;5.07;;;;;;;;;;5095214;28;20020;-58
2021/06/22 08:07:44;;;;;;;7.20;4.80;;;;;;;;;;5095363;28;20111;-58
2021/06/22 08:10:10;;;;;;;6.28;4.82;;;;;;;;;;5095714;28;20131;-58
2021/06/22 08:12:36;;;;;;;5.45;4.90;;;;;;;;;;5093916;28;20035;-58
2021/06/22 08:15:03;;;;;;;5.35;4.13;;;;;;;;;;5095266;28;20469;-58
2021/06/22 08:17:29;;;;;;;6.13;4.85;;;;;;;;;;5095901;28;20077;-58
2021/06/22 08:19:55;;;;;;;6.65;4.10;;;;;;;;;;5093843;28;20024;-58
2021/06/22 08:22:21;;;;;;;5.63;4.10;;;;;;;;;;5095204;28;20024;-59
2021/06/22 08:24:47;;;;;;;4.78;3.60;;;;;;;;;;5095314;28;20361;-59
2021/06/22 08:27:12;;;;;;;7.10;3.97;;;;;;;;;;5094951;28;20012;-59
2021/06/22 08:29:38;;;;;;;3.50;3.03;;;;;;;;;;5093680;28;20027;-58
2021/06/22 08:32:05;;;;;;;4.38;3.38;;;;;;;;;;5095099;28;20115;-59
2021/06/22 08:34:31;;;;;;;4.47;3.33;;;;;;;;;;5094805;28;20077;-59
2021/06/22 08:36:57;;;;;;;5.88;3.45;;;;;;;;;;5095052;28;20020;-58
2021/06/22 08:39:23;;;;;;;4.32;3.67;;;;;;;;;;5094782;28;20024;-59
2021/06/22 08:41:50;;;;;;;5.45;3.05;;;;;;;;;;5095291;28;20026;-58
2021/06/22 08:44:19;;;;;;;4.72;3.40;;;;;;;;;;5095266;28;20373;-58
2021/06/22 08:46:45;;;;;;;3.83;2.95;;;;;;;;;;5094429;28;20025;-59
2021/06/22 08:49:13;;;;;;;6.82;3.78;;;;;;;;;;5094630;28;20028;-59
2021/06/22 08:51:40;;;;;;;5.22;3.30;;;;;;;;;;5094364;28;20492;-58
2021/06/22 08:54:06;;;;;;;4.20;3.15;;;;;;;;;;5094555;28;20038;-59
2021/06/22 08:56:35;;;;;;;4.60;3.17;;;;;;;;;;5094527;28;20024;-58
2021/06/22 08:59:02;;;;;;;5.80;3.08;;;;;;;;;;5094437;28;20020;-58
2021/06/22 09:01:28;;;;;;;7.80;3.25;;;;;;;;;;5094651;28;20098;-59
2021/06/22 09:03:54;;;;;;;4.22;2.78;;;;;;;;;;5094329;28;20020;-58
2021/06/22 09:06:25;;;;;;;5.03;2.92;;;;;;;;;;5094308;28;20370;-59
2021/06/22 09:08:51;;;;;;;;;;;;;;;;;;5094819;28;20044;-59
2021/06/22 09:11:17;;;;;;;4.47;3.47;;;;;;;;;;5094218;28;19914;-59
2021/06/22 09:13:44;;;;;;;7.03;4.57;;;;;;;;;;5094248;28;20031;-59
2021/06/22 09:16:15;;;;;;;5.85;5.10;;;;;;;;;;5094110;28;20023;-59
2021/06/22 09:18:45;;;;;;;5.90;5.38;;;;;;;;;;5093458;28;20073;-59
2021/06/22 09:21:19;;;;;;;8.05;5.20;;;;;;;;;;5094479;28;20032;-59
2021/06/22 09:23:45;;;;;;;6.93;5.47;;;;;;;;;;5094046;28;20024;-59
2021/06/22 09:26:13;;;;;;;5.25;4.72;;;;;;;;;;5094047;28;20047;-59
2021/06/22 09:28:39;;;;;;;6.95;4.85;;;;;;;;;;5094045;28;20056;-59
2021/06/22 09:31:06;;;;;;;5.28;4.78;;;;;;;;;;5093920;28;20028;-59
2021/06/22 09:33:43;;;;;;;7.70;6.32;;;;;;;;;;5093260;28;20028;-58
2021/06/22 09:36:20;;;;;;;9.70;6.63;;;;;;;;;;5094282;28;20028;-58
2021/06/22 09:38:51;;;;;;;7.85;6.40;;;;;;;;;;5092923;28;20103;-58
2021/06/22 09:41:23;;;;;;;6.65;6.00;;;;;;;;;;5094008;28;20119;-59
2021/06/22 09:43:51;;;;;;;8.20;6.35;;;;;;;;;;5093758;28;20012;-59
2021/06/22 09:46:22;;;;;;;7.38;6.07;;;;;;;;;;5093877;28;20031;-58
2021/06/22 09:48:56;;;;;;;5.28;4.78;;;;;;;;;;5094427;28;20024;-58
2021/06/22 09:51:29;;;;;;;6.47;5.85;;;;;;;;;;5093819;28;20118;-59
2021/06/22 09:53:55;;;;;;;6.10;4.93;;;;;;;;;;5094340;28;20033;-58
2021/06/22 09:56:25;;;;;;;5.28;4.78;;;;;;;;;;5094151;28;20031;-58
2021/06/22 09:58:52;;;;;;;6.80;5.53;;;;;;;;;;5096744;28;20099;-58
2021/06/22 10:01:24;;;;;;;7.05;6.05;;;;;;;;;;5097177;28;20038;-58
2021/06/22 10:03:50;;;;;;;6.05;5.35;;;;;;;;;;5098081;28;20107;-59
2021/06/22 10:06:17;;;;;;;7.90;6.07;;;;;;;;;;5097629;28;20028;-58
2021/06/22 10:08:53;;;;;;;5.97;5.43;;;;;;;;;;5097278;28;20570;-59
2021/06/22 10:11:31;;;;;;;6.57;5.70;;;;;;;;;;5097813;28;20465;-58
2021/06/22 10:13:57;;;;;;;6.78;6.03;;;;;;;;;;5097651;28;20039;-59
2021/06/22 10:16:25;;;;;;;9.02;6.50;;;;;;;;;;5097098;28;20482;-59
2021/06/22 10:18:52;;;;;;;8.23;7.32;;;;;;;;;;5097433;28;20032;-59
2021/06/22 10:21:18;;;;;;;10.38;5.60;;;;;;;;;;5098068;28;20024;-58
2021/06/22 10:23:44;;;;;;;7.25;6.38;;;;;;;;;;5097091;28;20509;-58
2021/06/22 10:26:11;;;;;;;7.50;6.70;;;;;;;;;;5097325;28;20435;-58
2021/06/22 10:28:37;;;;;;;9.32;6.88;;;;;;;;;;5097208;28;20030;-59
2021/06/22 10:31:04;;;;;;;6.75;5.53;;;;;;;;;;5097506;28;20111;-59
2021/06/22 10:33:30;;;;;;;7.60;6.30;;;;;;;;;;5097106;28;20028;-59
2021/06/22 10:35:57;;;;;;;7.10;6.40;;;;;;;;;;5096793;28;20081;-59
2021/06/22 10:38:25;;;;;;;6.70;6.03;;;;;;;;;;5097011;28;20107;-59
2021/06/22 10:40:55;;;;;;;6.40;5.55;;;;;;;;;;5096711;28;20024;-59
2021/06/22 10:43:34;;;;;;;7.00;6.40;;;;;;;;;;5096791;28;20028;-59
2021/06/22 10:46:05;;;;;;;7.07;6.38;;;;;;;;;;5097610;28;20024;-59
2021/06/22 10:48:41;;;;;;;7.20;6.53;;;;;;;;;;5097154;28;20016;-59
2021/06/22 10:51:26;;;;;;;6.30;5.70;;;;;;;;;;5097028;28;20024;-58
2021/06/22 10:53:55;;;;;;;6.78;6.18;;;;;;;;;;5097330;28;20032;-58
2021/06/22 10:56:21;;;;;;;7.75;6.43;;;;;;;;;;5095090;28;20016;-59
2021/06/22 10:59:06;;;;;;;8.13;7.00;;;;;;;;;;5096638;28;20028;-58
2021/06/22 11:01:51;;;;;;;8.90;6.38;;;;;;;;;;5096956;28;20032;-58
2021/06/22 11:04:17;;;;;;;6.47;5.50;;;;;;;;;;5096578;28;20437;-59
2021/06/22 11:06:59;;;;;;;7.47;6.40;;;;;;;;;;5097035;28;20343;-59
2021/06/22 11:09:25;;;;;;;6.32;5.72;;;;;;;;;;5095408;28;20404;-59
2021/06/22 11:12:11;;;;;;;7.07;6.40;;;;;;;;;;5095156;28;20024;-59
2021/06/22 11:14:55;;;;;;;5.72;5.10;;;;;;;;;;5096885;28;20365;-59
2021/06/22 11:17:42;;;;;;;6.35;5.00;;;;;;;;;;5096378;28;20028;-59
2021/06/22 11:20:13;;;;;;;7.63;5.43;;;;;;;;;;5082282;28;20036;-59
2021/06/22 11:22:58;;;;;;;4.80;4.32;;;;;;;;;;5096486;28;20024;-59
2021/06/22 11:25:24;;;;;;;6.45;4.80;;;;;;;;;;5096175;28;20034;-59
2021/06/22 11:28:04;;;;;;;5.78;4.63;;;;;;;;;;5096665;28;20465;-59
2021/06/22 11:30:49;;;;;;;6.45;5.68;;;;;;;;;;5096014;28;20016;-59
2021/06/22 11:33:34;;;;;;;7.25;6.53;;;;;;;;;;5096415;28;20028;-59
2021/06/22 11:36:19;;;;;;;7.38;6.68;;;;;;;;;;5096465;28;20350;-59
2021/06/22 11:39:05;;;;;;;9.23;8.18;;;;;;;;;;5096056;28;20043;-58
2021/06/22 11:41:32;;;;;;;8.07;7.28;;;;;;;;;;5095856;28;20020;-59
2021/06/22 11:44:07;;;;;;;8.00;6.95;;;;;;;;;;5095967;28;20107;-58
2021/06/22 11:46:34;;;;;;;8.07;6.38;;;;;;;;;;5094033;28;20431;-58
2021/06/22 11:49:01;;;;;;;7.13;6.43;;;;;;;;;;5095475;28;20039;-58
2021/06/22 11:51:45;;;;;;;6.38;5.78;;;;;;;;;;5095763;28;20458;-58
2021/06/22 11:54:11;;;;;;;6.13;5.53;;;;;;;;;;5095146;28;20357;-58
2021/06/22 11:56:38;;;;;;;8.43;6.45;;;;;;;;;;5095062;28;20541;-58
2021/06/22 11:59:04;;;;;;;6.68;4.50;;;;;;;;;;5095275;28;20052;-58
2021/06/22 12:01:30;;;;;;;8.48;5.47;;;;;;;;;;5095726;28;20073;-60
2021/06/22 12:03:57;;;;;;;6.20;4.72;;;;;;;;;;5095294;28;20411;-58
2021/06/22 12:06:23;;;;;;;5.32;4.75;;;;;;;;;;5095255;28;20016;-59
2021/06/22 12:08:49;;;;;;;5.40;4.68;;;;;;;;;;5095200;28;20052;-59
2021/06/22 12:11:31;;;;;;;6.90;4.75;;;;;;;;;;5094880;28;20031;-59
2021/06/22 12:13:57;;;;;;;5.28;4.20;;;;;;;;;;5095258;28;20024;-59
2021/06/22 12:16:23;;;;;;;5.40;4.28;;;;;;;;;;5095343;28;20028;-59
2021/06/22 12:18:50;;;;;;;5.80;4.93;;;;;;;;;;5095547;28;20103;-59
2021/06/22 12:21:16;;;;;;;5.93;5.30;;;;;;;;;;5094678;28;20031;-58
2021/06/22 12:23:45;;;;;;;5.95;4.95;;;;;;;;;;5095019;28;20032;-58
2021/06/22 12:26:12;;;;;;;5.47;4.90;;;;;;;;;;5095378;28;20016;-58
2021/06/22 12:28:38;;;;;;;5.97;5.05;;;;;;;;;;5095500;28;20016;-58
2021/06/22 12:31:05;;;;;;;6.55;4.55;;;;;;;;;;5093512;28;20024;-58
2021/06/22 12:33:41;;;;;;;5.78;4.22;;;;;;;;;;5093901;28;20032;-59
2021/06/22 12:36:09;;;;;;;5.88;5.07;;;;;;;;;;5094647;28;20077;-58
2021/06/22 12:38:39;;;;;;;6.25;4.88;;;;;;;;;;5094888;28;20032;-58
2021/06/22 12:41:06;;;;;;;5.88;4.63;;;;;;;;;;5094872;28;20023;-58
2021/06/22 12:43:39;;;;;;;5.72;5.13;;;;;;;;;;5095287;28;20111;-58
2021/06/22 12:46:06;;;;;;;9.18;6.18;;;;;;;;;;5094452;28;20385;-58
2021/06/22 12:48:32;;;;;;;7.15;5.93;;;;;;;;;;5094653;28;20017;-58
2021/06/22 12:51:01;;;;;;;10.77;5.97;;;;;;;;;;5094884;28;20032;-58
2021/06/22 12:53:30;;;;;;;6.25;5.22;;;;;;;;;;5094840;28;20484;-59
2021/06/22 12:56:10;;;;;;;7.97;5.85;;;;;;;;;;5094114;28;20461;-58
2021/06/22 12:58:49;;;;;;;5.97;5.38;;;;;;;;;;5094275;28;20028;-58
2021/06/22 13:01:34;;;;;;;9.73;6.65;;;;;;;;;;5094662;28;20212;-58
2021/06/22 13:04:00;;;;;;;7.82;5.50;;;;;;;;;;5094334;28;20359;-58
2021/06/22 13:06:30;;;;;;;7.75;6.97;;;;;;;;;;5094701;28;20024;-58
2021/06/22 13:08:57;;;;;;;9.70;7.47;;;;;;;;;;5093168;28;20052;-58
2021/06/22 13:11:29;;;;;;;9.55;8.45;;;;;;;;;;5094610;28;20426;-59
2021/06/22 13:14:07;;;;;;;9.60;7.45;;;;;;;;;;5094178;28;20089;-59
2021/06/22 13:16:36;;;;;;;5.28;4.78;;;;;;;;;;5094687;28;20052;-59
2021/06/22 13:19:13;;;;;;;8.13;6.32;;;;;;;;;;5094101;28;20027;-59
2021/06/22 13:21:47;;;;;;;6.25;5.45;;;;;;;;;;5094978;28;20038;-59
2021/06/22 13:24:34;;;;;;;6.80;5.35;;;;;;;;;;5094632;28;20020;-59
2021/06/22 13:27:01;;;;;;;5.50;5.00;;;;;;;;;;5092669;28;20027;-59
2021/06/22 13:29:28;;;;;;;5.68;4.85;;;;;;;;;;5094019;28;20020;-59
2021/06/22 13:31:54;;;;;;;5.85;4.65;;;;;;;;;;5093914;28;20063;-59
2021/06/22 13:34:26;;;;;;;7.30;4.00;;;;;;;;;;5093588;28;20423;-59
2021/06/22 13:36:53;;;;;;;4.57;3.45;;;;;;;;;;5094223;28;20081;-57
2021/06/22 13:39:20;;;;;;;4.40;3.33;;;;;;;;;;5093895;28;20367;-57
2021/06/22 13:41:51;;;;;;;3.80;2.92;;;;;;;;;;5094146;28;20020;-57
2021/06/22 13:44:17;;;;;;;;;;;;;;;;;;5093613;28;20032;-57
2021/06/22 13:46:43;;;;;;;3.38;3.00;;;;;;;;;;5093367;28;19908;-57
2021/06/22 13:49:09;;;;;;;5.88;3.67;;;;;;;;;;5093682;28;20031;-57
2021/06/22 13:51:36;;;;;;;4.40;3.72;;;;;;;;;;5093907;28;20036;-57
2021/06/22 13:54:03;;;;;;;4.93;3.83;;;;;;;;;;5094027;28;20427;-57
2021/06/22 13:56:30;;;;;;;5.45;4.47;;;;;;;;;;5093241;28;20385;-57
2021/06/22 13:58:57;;;;;;;5.22;4.10;;;;;;;;;;5093526;28;20043;-57
2021/06/22 14:01:23;;;;;;;5.00;3.60;;;;;;;;;;5094102;28;20411;-57
2021/06/22 14:03:49;;;;;;;4.15;3.15;;;;;;;;;;5093575;28;20440;-57
2021/06/22 14:06:16;;;;;;;3.80;3.00;;;;;;;;;;5092397;28;20055;-57
2021/06/22 14:08:42;;;;;;;3.92;3.45;;;;;;;;;;5093132;28;20056;-57
2021/06/22 14:11:08;;;;;;;4.22;3.33;;;;;;;;;;5092605;28;20038;-57
2021/06/22 14:13:34;;;;;;;3.33;2.83;;;;;;;;;;5094303;28;20032;-57
2021/06/22 14:16:01;;;;;;;5.10;2.45;;;;;;;;;;5093774;28;20438;-57
2021/06/22 14:18:26;;;;;;;3.55;2.60;;;;;;;;;;5093759;28;20025;-57
2021/06/22 14:20:53;;;;;;;2.60;2.00;;;;;;;;;;5093978;28;20091;-57
2021/06/22 14:23:23;;;;;;;2.47;1.58;;;;;;;;;;5093719;28;20025;-57
2021/06/22 14:25:49;;;;;;;3.20;2.20;;;;;;;;;;5093803;28;20032;-57
2021/06/22 14:28:21;;;;;;;2.83;1.33;;;;;;;;;;5093929;28;20437;-57
2021/06/22 14:30:49;;;;;;;2.50;1.70;;;;;;;;;;5093899;28;20056;-57
2021/06/22 14:33:18;;;;;;;2.03;1.13;;;;;;;;;;5093619;28;20370;-58
2021/06/22 14:35:44;;;;;;;1.38;0.88;;;;;;;;;;5093348;28;20062;-58
2021/06/22 14:38:11;;;;;;;1.75;1.10;;;;;;;;;;5093352;28;20020;-58
2021/06/22 14:40:37;;;;;;;2.58;0.98;;;;;;;;;;5093072;28;20103;-57
2021/06/22 14:43:06;;;;;;;2.33;1.20;;;;;;;;;;5092898;28;20020;-58
2021/06/22 14:45:33;;;;;;;2.50;1.50;;;;;;;;;;5097300;28;20107;-58